CVX weather

Public forecast

Using degrees Fahrenheit for public forecast. Weather courtesy of forecast.io.

Current aviation weather report (METAR) for Charlevoix Municipal Airport

Retrieved 2020/08/13 23:15 UTC (0 seconds ago):

KCVX 132315Z AUTO 00000KT 10SM CLR 25/20 A3011 RMK AO2 T02450196

Closest aviation forecast (TAF) to Charlevoix Municipal Airport

Closest forecast is Pellston Regional Airport of Emmet County Airport, 25.7 nm (47.6 km) NE. Retrieved 2020/08/13 18:34 UTC (5 hours ago):

TAF KPLN 131732Z 1318/1418 07004KT P6SM BKN120 FM140100 00000KT P6SM BKN100 FM141400 13007KT P6SM SCT100